sensor_id;sensor_type;location;lat;lon;timestamp;P1;durP1;ratioP1;P2;durP2;ratioP2
50355;SDS011;36264;51.296;-0.602;2022-07-10T00:01:22;4.90;;;2.10;;
50355;SDS011;36264;51.296;-0.602;2022-07-10T00:03:48;4.10;;;2.20;;
50355;SDS011;36264;51.296;-0.602;2022-07-10T00:06:15;4.93;;;2.22;;
50355;SDS011;36264;51.296;-0.602;2022-07-10T00:08:40;2.85;;;1.80;;
50355;SDS011;36264;51.296;-0.602;2022-07-10T00:11:07;3.72;;;2.22;;
50355;SDS011;36264;51.296;-0.602;2022-07-10T00:13:33;4.07;;;2.20;;
50355;SDS011;36264;51.296;-0.602;2022-07-10T00:15:59;2.72;;;2.00;;
50355;SDS011;36264;51.296;-0.602;2022-07-10T00:18:26;4.45;;;2.40;;
50355;SDS011;36264;51.296;-0.602;2022-07-10T00:20:51;3.55;;;2.17;;
50355;SDS011;36264;51.296;-0.602;2022-07-10T00:23:16;3.85;;;2.33;;
50355;SDS011;36264;51.296;-0.602;2022-07-10T00:25:42;4.20;;;2.28;;
50355;SDS011;36264;51.296;-0.602;2022-07-10T00:28:07;4.38;;;2.28;;
50355;SDS011;36264;51.296;-0.602;2022-07-10T00:30:32;4.40;;;2.20;;
50355;SDS011;36264;51.296;-0.602;2022-07-10T00:32:58;4.65;;;2.25;;
50355;SDS011;36264;51.296;-0.602;2022-07-10T00:35:24;5.45;;;2.28;;
50355;SDS011;36264;51.296;-0.602;2022-07-10T00:37:50;3.13;;;1.80;;
50355;SDS011;36264;51.296;-0.602;2022-07-10T00:40:15;3.53;;;2.00;;
50355;SDS011;36264;51.296;-0.602;2022-07-10T00:42:41;3.58;;;2.13;;
50355;SDS011;36264;51.296;-0.602;2022-07-10T00:45:06;3.58;;;2.10;;
50355;SDS011;36264;51.296;-0.602;2022-07-10T00:47:32;3.88;;;2.20;;
50355;SDS011;36264;51.296;-0.602;2022-07-10T00:49:57;2.97;;;1.90;;
50355;SDS011;36264;51.296;-0.602;2022-07-10T00:52:23;4.03;;;2.22;;
50355;SDS011;36264;51.296;-0.602;2022-07-10T00:54:50;4.20;;;2.58;;
50355;SDS011;36264;51.296;-0.602;2022-07-10T00:57:16;4.97;;;2.70;;
50355;SDS011;36264;51.296;-0.602;2022-07-10T00:59:42;5.60;;;3.00;;
50355;SDS011;36264;51.296;-0.602;2022-07-10T01:02:13;5.35;;;2.53;;
50355;SDS011;36264;51.296;-0.602;2022-07-10T01:04:39;5.60;;;2.80;;
50355;SDS011;36264;51.296;-0.602;2022-07-10T01:07:04;3.97;;;2.42;;
50355;SDS011;36264;51.296;-0.602;2022-07-10T01:09:30;4.65;;;2.30;;
50355;SDS011;36264;51.296;-0.602;2022-07-10T01:11:56;4.75;;;2.92;;
50355;SDS011;36264;51.296;-0.602;2022-07-10T01:14:25;4.32;;;2.58;;
50355;SDS011;36264;51.296;-0.602;2022-07-10T01:16:51;5.22;;;2.75;;
50355;SDS011;36264;51.296;-0.602;2022-07-10T01:19:17;4.72;;;2.70;;
50355;SDS011;36264;51.296;-0.602;2022-07-10T01:21:42;4.75;;;2.97;;
50355;SDS011;36264;51.296;-0.602;2022-07-10T01:24:08;5.80;;;3.15;;
50355;SDS011;36264;51.296;-0.602;2022-07-10T01:26:35;6.38;;;3.03;;
50355;SDS011;36264;51.296;-0.602;2022-07-10T01:29:06;6.07;;;3.00;;
50355;SDS011;36264;51.296;-0.602;2022-07-10T01:33:58;5.30;;;2.88;;
50355;SDS011;36264;51.296;-0.602;2022-07-10T01:36:24;5.05;;;2.80;;
50355;SDS011;36264;51.296;-0.602;2022-07-10T01:38:51;5.43;;;3.17;;
50355;SDS011;36264;51.296;-0.602;2022-07-10T01:41:16;5.15;;;2.90;;
50355;SDS011;36264;51.296;-0.602;2022-07-10T01:43:42;4.97;;;2.70;;
50355;SDS011;36264;51.296;-0.602;2022-07-10T01:46:09;5.22;;;3.33;;
50355;SDS011;36264;51.296;-0.602;2022-07-10T01:48:36;6.05;;;2.70;;
50355;SDS011;36264;51.296;-0.602;2022-07-10T01:51:02;6.55;;;3.15;;
50355;SDS011;36264;51.296;-0.602;2022-07-10T01:53:28;4.45;;;2.50;;
50355;SDS011;36264;51.296;-0.602;2022-07-10T01:55:54;6.05;;;2.90;;
50355;SDS011;36264;51.296;-0.602;2022-07-10T01:58:20;5.38;;;2.67;;
50355;SDS011;36264;51.296;-0.602;2022-07-10T02:00:45;4.45;;;2.45;;
50355;SDS011;36264;51.296;-0.602;2022-07-10T02:03:10;5.60;;;2.85;;
50355;SDS011;36264;51.296;-0.602;2022-07-10T02:05:54;5.38;;;2.80;;
50355;SDS011;36264;51.296;-0.602;2022-07-10T02:08:19;5.07;;;2.67;;
50355;SDS011;36264;51.296;-0.602;2022-07-10T02:10:45;5.35;;;2.95;;
50355;SDS011;36264;51.296;-0.602;2022-07-10T02:13:10;6.40;;;2.70;;
50355;SDS011;36264;51.296;-0.602;2022-07-10T02:15:36;4.45;;;2.42;;
50355;SDS011;36264;51.296;-0.602;2022-07-10T02:18:02;5.07;;;2.67;;
50355;SDS011;36264;51.296;-0.602;2022-07-10T02:20:27;5.95;;;2.80;;
50355;SDS011;36264;51.296;-0.602;2022-07-10T02:22:53;5.10;;;2.75;;
50355;SDS011;36264;51.296;-0.602;2022-07-10T02:25:18;6.20;;;2.85;;
50355;SDS011;36264;51.296;-0.602;2022-07-10T02:27:43;6.75;;;3.17;;
50355;SDS011;36264;51.296;-0.602;2022-07-10T02:30:09;6.45;;;3.00;;
50355;SDS011;36264;51.296;-0.602;2022-07-10T02:32:34;6.90;;;3.22;;
50355;SDS011;36264;51.296;-0.602;2022-07-10T02:34:59;6.82;;;3.22;;
50355;SDS011;36264;51.296;-0.602;2022-07-10T02:37:25;7.45;;;3.45;;
50355;SDS011;36264;51.296;-0.602;2022-07-10T02:39:50;6.03;;;3.13;;
50355;SDS011;36264;51.296;-0.602;2022-07-10T02:42:15;5.90;;;3.30;;
50355;SDS011;36264;51.296;-0.602;2022-07-10T02:44:41;8.02;;;4.30;;
50355;SDS011;36264;51.296;-0.602;2022-07-10T02:47:07;12.63;;;4.63;;
50355;SDS011;36264;51.296;-0.602;2022-07-10T02:49:32;8.25;;;4.38;;
50355;SDS011;36264;51.296;-0.602;2022-07-10T02:51:58;10.90;;;4.35;;
50355;SDS011;36264;51.296;-0.602;2022-07-10T02:54:23;7.25;;;3.67;;
50355;SDS011;36264;51.296;-0.602;2022-07-10T02:56:49;8.55;;;3.80;;
50355;SDS011;36264;51.296;-0.602;2022-07-10T02:59:15;6.50;;;3.47;;
50355;SDS011;36264;51.296;-0.602;2022-07-10T03:01:41;8.95;;;4.18;;
50355;SDS011;36264;51.296;-0.602;2022-07-10T03:04:07;8.32;;;3.78;;
50355;SDS011;36264;51.296;-0.602;2022-07-10T03:06:33;6.72;;;3.67;;
50355;SDS011;36264;51.296;-0.602;2022-07-10T03:08:58;9.50;;;3.70;;
50355;SDS011;36264;51.296;-0.602;2022-07-10T03:11:23;7.95;;;3.60;;
50355;SDS011;36264;51.296;-0.602;2022-07-10T03:13:49;6.05;;;3.60;;
50355;SDS011;36264;51.296;-0.602;2022-07-10T03:16:14;8.07;;;3.55;;
50355;SDS011;36264;51.296;-0.602;2022-07-10T03:18:40;5.82;;;3.20;;
50355;SDS011;36264;51.296;-0.602;2022-07-10T03:21:05;5.10;;;2.83;;
50355;SDS011;36264;51.296;-0.602;2022-07-10T03:23:31;5.60;;;2.85;;
50355;SDS011;36264;51.296;-0.602;2022-07-10T03:25:56;5.30;;;2.90;;
50355;SDS011;36264;51.296;-0.602;2022-07-10T03:28:21;6.05;;;3.42;;
50355;SDS011;36264;51.296;-0.602;2022-07-10T03:30:47;6.47;;;3.28;;
50355;SDS011;36264;51.296;-0.602;2022-07-10T03:33:12;5.22;;;2.50;;
50355;SDS011;36264;51.296;-0.602;2022-07-10T03:35:38;4.10;;;2.63;;
50355;SDS011;36264;51.296;-0.602;2022-07-10T03:38:03;5.00;;;2.67;;
50355;SDS011;36264;51.296;-0.602;2022-07-10T03:40:28;5.22;;;2.35;;
50355;SDS011;36264;51.296;-0.602;2022-07-10T03:42:54;5.45;;;2.45;;
50355;SDS011;36264;51.296;-0.602;2022-07-10T03:45:19;4.55;;;2.30;;
50355;SDS011;36264;51.296;-0.602;2022-07-10T03:47:45;4.13;;;2.35;;
50355;SDS011;36264;51.296;-0.602;2022-07-10T03:50:10;6.88;;;2.90;;
50355;SDS011;36264;51.296;-0.602;2022-07-10T03:52:36;4.78;;;2.42;;
50355;SDS011;36264;51.296;-0.602;2022-07-10T03:55:02;4.40;;;2.47;;
50355;SDS011;36264;51.296;-0.602;2022-07-10T03:57:28;6.47;;;2.40;;
50355;SDS011;36264;51.296;-0.602;2022-07-10T04:00:12;3.90;;;2.30;;
50355;SDS011;36264;51.296;-0.602;2022-07-10T04:02:37;4.70;;;2.60;;
50355;SDS011;36264;51.296;-0.602;2022-07-10T04:05:09;4.60;;;2.22;;
50355;SDS011;36264;51.296;-0.602;2022-07-10T04:07:35;3.53;;;2.15;;
50355;SDS011;36264;51.296;-0.602;2022-07-10T04:10:02;4.00;;;2.17;;
50355;SDS011;36264;51.296;-0.602;2022-07-10T04:12:28;3.20;;;1.90;;
50355;SDS011;36264;51.296;-0.602;2022-07-10T04:14:53;4.03;;;2.08;;
50355;SDS011;36264;51.296;-0.602;2022-07-10T04:17:19;3.40;;;2.10;;
50355;SDS011;36264;51.296;-0.602;2022-07-10T04:19:45;4.03;;;1.90;;
50355;SDS011;36264;51.296;-0.602;2022-07-10T04:22:11;4.35;;;2.05;;
50355;SDS011;36264;51.296;-0.602;2022-07-10T04:24:36;3.53;;;2.10;;
50355;SDS011;36264;51.296;-0.602;2022-07-10T04:27:02;4.05;;;2.13;;
50355;SDS011;36264;51.296;-0.602;2022-07-10T04:29:28;3.50;;;1.98;;
50355;SDS011;36264;51.296;-0.602;2022-07-10T04:31:53;3.15;;;2.00;;
50355;SDS011;36264;51.296;-0.602;2022-07-10T04:34:19;3.28;;;2.00;;
50355;SDS011;36264;51.296;-0.602;2022-07-10T04:36:45;2.88;;;1.88;;
50355;SDS011;36264;51.296;-0.602;2022-07-10T04:39:10;3.83;;;2.20;;
50355;SDS011;36264;51.296;-0.602;2022-07-10T04:41:36;4.05;;;2.20;;
50355;SDS011;36264;51.296;-0.602;2022-07-10T04:44:01;3.10;;;1.90;;
50355;SDS011;36264;51.296;-0.602;2022-07-10T04:46:27;3.80;;;2.00;;
50355;SDS011;36264;51.296;-0.602;2022-07-10T04:48:52;4.00;;;2.28;;
50355;SDS011;36264;51.296;-0.602;2022-07-10T04:51:17;3.22;;;1.88;;
50355;SDS011;36264;51.296;-0.602;2022-07-10T04:53:43;6.45;;;2.08;;
50355;SDS011;36264;51.296;-0.602;2022-07-10T04:56:08;3.67;;;2.17;;
50355;SDS011;36264;51.296;-0.602;2022-07-10T04:58:34;2.45;;;1.90;;
50355;SDS011;36264;51.296;-0.602;2022-07-10T05:00:59;3.22;;;1.88;;
50355;SDS011;36264;51.296;-0.602;2022-07-10T05:03:25;3.35;;;2.00;;
50355;SDS011;36264;51.296;-0.602;2022-07-10T05:05:50;3.67;;;1.77;;
50355;SDS011;36264;51.296;-0.602;2022-07-10T05:08:15;6.35;;;2.20;;
50355;SDS011;36264;51.296;-0.602;2022-07-10T05:10:41;3.35;;;2.20;;
50355;SDS011;36264;51.296;-0.602;2022-07-10T05:13:06;3.03;;;1.83;;
50355;SDS011;36264;51.296;-0.602;2022-07-10T05:15:31;2.75;;;1.83;;
50355;SDS011;36264;51.296;-0.602;2022-07-10T05:17:57;5.13;;;1.80;;
50355;SDS011;36264;51.296;-0.602;2022-07-10T05:20:22;2.92;;;1.90;;
50355;SDS011;36264;51.296;-0.602;2022-07-10T05:22:48;3.08;;;1.65;;
50355;SDS011;36264;51.296;-0.602;2022-07-10T05:25:13;2.15;;;1.55;;
50355;SDS011;36264;51.296;-0.602;2022-07-10T05:27:39;3.28;;;1.92;;
50355;SDS011;36264;51.296;-0.602;2022-07-10T05:30:04;5.70;;;2.05;;
50355;SDS011;36264;51.296;-0.602;2022-07-10T05:32:30;3.30;;;2.00;;
50355;SDS011;36264;51.296;-0.602;2022-07-10T05:34:57;3.15;;;1.75;;
50355;SDS011;36264;51.296;-0.602;2022-07-10T05:37:23;2.55;;;1.80;;
50355;SDS011;36264;51.296;-0.602;2022-07-10T05:39:49;3.22;;;2.00;;
50355;SDS011;36264;51.296;-0.602;2022-07-10T05:42:15;3.20;;;1.98;;
50355;SDS011;36264;51.296;-0.602;2022-07-10T05:44:40;2.72;;;1.83;;
50355;SDS011;36264;51.296;-0.602;2022-07-10T05:47:05;3.65;;;1.77;;
50355;SDS011;36264;51.296;-0.602;2022-07-10T05:49:32;3.75;;;1.90;;
50355;SDS011;36264;51.296;-0.602;2022-07-10T05:51:57;4.68;;;1.95;;
50355;SDS011;36264;51.296;-0.602;2022-07-10T05:54:23;4.10;;;2.00;;
50355;SDS011;36264;51.296;-0.602;2022-07-10T05:56:48;4.03;;;2.13;;
50355;SDS011;36264;51.296;-0.602;2022-07-10T05:59:14;3.63;;;1.90;;
50355;SDS011;36264;51.296;-0.602;2022-07-10T06:01:39;4.78;;;2.30;;
50355;SDS011;36264;51.296;-0.602;2022-07-10T06:04:05;4.82;;;2.13;;
50355;SDS011;36264;51.296;-0.602;2022-07-10T06:06:30;3.85;;;2.10;;
50355;SDS011;36264;51.296;-0.602;2022-07-10T06:08:56;3.88;;;2.15;;
50355;SDS011;36264;51.296;-0.602;2022-07-10T06:11:21;4.85;;;2.35;;
50355;SDS011;36264;51.296;-0.602;2022-07-10T06:13:46;3.42;;;2.10;;
50355;SDS011;36264;51.296;-0.602;2022-07-10T06:16:12;4.20;;;2.30;;
50355;SDS011;36264;51.296;-0.602;2022-07-10T06:18:37;4.05;;;2.30;;
50355;SDS011;36264;51.296;-0.602;2022-07-10T06:21:02;3.45;;;2.20;;
50355;SDS011;36264;51.296;-0.602;2022-07-10T06:23:28;3.53;;;2.10;;
50355;SDS011;36264;51.296;-0.602;2022-07-10T06:25:53;5.22;;;2.72;;
50355;SDS011;36264;51.296;-0.602;2022-07-10T06:28:19;3.83;;;2.25;;
50355;SDS011;36264;51.296;-0.602;2022-07-10T06:30:46;4.13;;;2.13;;
50355;SDS011;36264;51.296;-0.602;2022-07-10T06:33:12;4.00;;;2.08;;
50355;SDS011;36264;51.296;-0.602;2022-07-10T06:35:37;5.72;;;2.20;;
50355;SDS011;36264;51.296;-0.602;2022-07-10T06:38:04;3.47;;;2.00;;
50355;SDS011;36264;51.296;-0.602;2022-07-10T06:40:30;4.25;;;2.55;;
50355;SDS011;36264;51.296;-0.602;2022-07-10T06:43:01;4.75;;;2.08;;
50355;SDS011;36264;51.296;-0.602;2022-07-10T06:45:27;3.20;;;2.08;;
50355;SDS011;36264;51.296;-0.602;2022-07-10T06:47:53;4.40;;;2.30;;
50355;SDS011;36264;51.296;-0.602;2022-07-10T06:50:22;5.05;;;2.33;;
50355;SDS011;36264;51.296;-0.602;2022-07-10T06:52:49;3.08;;;2.00;;
50355;SDS011;36264;51.296;-0.602;2022-07-10T06:55:15;3.50;;;1.90;;
50355;SDS011;36264;51.296;-0.602;2022-07-10T06:57:42;5.15;;;2.30;;
50355;SDS011;36264;51.296;-0.602;2022-07-10T07:00:08;4.57;;;2.25;;
50355;SDS011;36264;51.296;-0.602;2022-07-10T07:02:37;5.60;;;2.05;;
50355;SDS011;36264;51.296;-0.602;2022-07-10T07:05:03;3.25;;;1.80;;
50355;SDS011;36264;51.296;-0.602;2022-07-10T07:07:29;4.22;;;1.95;;
50355;SDS011;36264;51.296;-0.602;2022-07-10T07:09:55;2.95;;;1.85;;
50355;SDS011;36264;51.296;-0.602;2022-07-10T07:12:20;3.13;;;1.88;;
50355;SDS011;36264;51.296;-0.602;2022-07-10T07:14:45;3.33;;;1.70;;
50355;SDS011;36264;51.296;-0.602;2022-07-10T07:17:12;3.03;;;1.70;;
50355;SDS011;36264;51.296;-0.602;2022-07-10T07:19:39;3.13;;;1.70;;
50355;SDS011;36264;51.296;-0.602;2022-07-10T07:22:23;3.45;;;2.05;;
50355;SDS011;36264;51.296;-0.602;2022-07-10T07:25:07;5.35;;;2.00;;
50355;SDS011;36264;51.296;-0.602;2022-07-10T07:27:34;3.38;;;1.80;;
50355;SDS011;36264;51.296;-0.602;2022-07-10T07:30:02;3.03;;;1.83;;
50355;SDS011;36264;51.296;-0.602;2022-07-10T07:32:32;2.80;;;1.75;;
50355;SDS011;36264;51.296;-0.602;2022-07-10T07:34:58;5.43;;;2.00;;
50355;SDS011;36264;51.296;-0.602;2022-07-10T07:37:37;4.88;;;2.03;;
50355;SDS011;36264;51.296;-0.602;2022-07-10T07:40:12;4.32;;;2.03;;
50355;SDS011;36264;51.296;-0.602;2022-07-10T07:42:39;2.50;;;1.63;;
50355;SDS011;36264;51.296;-0.602;2022-07-10T07:45:06;3.13;;;1.70;;
50355;SDS011;36264;51.296;-0.602;2022-07-10T07:47:50;4.45;;;1.90;;
50355;SDS011;36264;51.296;-0.602;2022-07-10T07:50:19;3.45;;;1.70;;
50355;SDS011;36264;51.296;-0.602;2022-07-10T07:52:46;3.40;;;1.80;;
50355;SDS011;36264;51.296;-0.602;2022-07-10T07:55:13;2.83;;;1.60;;
50355;SDS011;36264;51.296;-0.602;2022-07-10T07:57:40;3.90;;;1.70;;
50355;SDS011;36264;51.296;-0.602;2022-07-10T08:00:06;3.15;;;1.80;;
50355;SDS011;36264;51.296;-0.602;2022-07-10T08:02:33;2.15;;;1.52;;
50355;SDS011;36264;51.296;-0.602;2022-07-10T08:04:59;4.90;;;1.60;;
50355;SDS011;36264;51.296;-0.602;2022-07-10T08:07:32;4.45;;;1.80;;
50355;SDS011;36264;51.296;-0.602;2022-07-10T08:09:59;1.77;;;1.40;;
50355;SDS011;36264;51.296;-0.602;2022-07-10T08:12:24;6.07;;;1.70;;
50355;SDS011;36264;51.296;-0.602;2022-07-10T08:14:49;2.97;;;1.80;;
50355;SDS011;36264;51.296;-0.602;2022-07-10T08:17:14;4.82;;;1.95;;
50355;SDS011;36264;51.296;-0.602;2022-07-10T08:19:40;3.15;;;1.70;;
50355;SDS011;36264;51.296;-0.602;2022-07-10T08:22:05;2.60;;;1.75;;
50355;SDS011;36264;51.296;-0.602;2022-07-10T08:24:31;3.78;;;1.70;;
50355;SDS011;36264;51.296;-0.602;2022-07-10T08:26:56;2.45;;;1.48;;
50355;SDS011;36264;51.296;-0.602;2022-07-10T08:29:22;5.97;;;1.90;;
50355;SDS011;36264;51.296;-0.602;2022-07-10T08:31:47;2.95;;;1.60;;
50355;SDS011;36264;51.296;-0.602;2022-07-10T08:34:12;3.20;;;1.70;;
50355;SDS011;36264;51.296;-0.602;2022-07-10T08:36:38;3.38;;;1.83;;
50355;SDS011;36264;51.296;-0.602;2022-07-10T08:39:03;3.08;;;1.60;;
50355;SDS011;36264;51.296;-0.602;2022-07-10T08:41:28;3.13;;;1.70;;
50355;SDS011;36264;51.296;-0.602;2022-07-10T08:43:56;2.25;;;1.50;;
50355;SDS011;36264;51.296;-0.602;2022-07-10T08:46:21;3.05;;;1.70;;
50355;SDS011;36264;51.296;-0.602;2022-07-10T08:48:48;4.13;;;1.95;;
50355;SDS011;36264;51.296;-0.602;2022-07-10T08:51:17;2.38;;;1.70;;
50355;SDS011;36264;51.296;-0.602;2022-07-10T08:53:50;3.10;;;1.77;;
50355;SDS011;36264;51.296;-0.602;2022-07-10T08:56:16;3.45;;;1.88;;
50355;SDS011;36264;51.296;-0.602;2022-07-10T08:58:42;2.97;;;1.80;;
50355;SDS011;36264;51.296;-0.602;2022-07-10T09:01:07;4.68;;;1.90;;
50355;SDS011;36264;51.296;-0.602;2022-07-10T09:03:33;3.22;;;1.88;;
50355;SDS011;36264;51.296;-0.602;2022-07-10T09:05:58;2.40;;;1.60;;
50355;SDS011;36264;51.296;-0.602;2022-07-10T09:08:24;2.40;;;1.50;;
50355;SDS011;36264;51.296;-0.602;2022-07-10T09:13:52;2.75;;;1.63;;
50355;SDS011;36264;51.296;-0.602;2022-07-10T09:16:28;2.88;;;1.80;;
50355;SDS011;36264;51.296;-0.602;2022-07-10T09:18:55;5.43;;;2.10;;
50355;SDS011;36264;51.296;-0.602;2022-07-10T09:21:22;3.35;;;2.03;;
50355;SDS011;36264;51.296;-0.602;2022-07-10T09:23:48;3.45;;;1.90;;
50355;SDS011;36264;51.296;-0.602;2022-07-10T09:26:14;2.83;;;1.70;;
50355;SDS011;36264;51.296;-0.602;2022-07-10T09:28:40;3.10;;;1.70;;
50355;SDS011;36264;51.296;-0.602;2022-07-10T09:31:05;2.70;;;1.77;;
50355;SDS011;36264;51.296;-0.602;2022-07-10T09:33:31;3.20;;;1.70;;
50355;SDS011;36264;51.296;-0.602;2022-07-10T09:35:59;2.25;;;1.67;;
50355;SDS011;36264;51.296;-0.602;2022-07-10T09:41:18;3.40;;;1.65;;
50355;SDS011;36264;51.296;-0.602;2022-07-10T09:43:45;1.95;;;1.40;;
50355;SDS011;36264;51.296;-0.602;2022-07-10T09:46:15;3.80;;;1.65;;
50355;SDS011;36264;51.296;-0.602;2022-07-10T09:48:41;1.80;;;1.40;;
50355;SDS011;36264;51.296;-0.602;2022-07-10T09:51:07;3.22;;;1.80;;
50355;SDS011;36264;51.296;-0.602;2022-07-10T09:53:38;3.22;;;1.90;;
50355;SDS011;36264;51.296;-0.602;2022-07-10T09:56:08;3.78;;;2.00;;
50355;SDS011;36264;51.296;-0.602;2022-07-10T09:58:34;3.13;;;1.90;;
50355;SDS011;36264;51.296;-0.602;2022-07-10T10:01:02;4.53;;;2.00;;
50355;SDS011;36264;51.296;-0.602;2022-07-10T10:03:37;3.05;;;1.80;;
50355;SDS011;36264;51.296;-0.602;2022-07-10T10:08:56;2.35;;;1.42;;
50355;SDS011;36264;51.296;-0.602;2022-07-10T10:11:28;2.95;;;1.75;;
50355;SDS011;36264;51.296;-0.602;2022-07-10T10:13:57;3.72;;;1.77;;
50355;SDS011;36264;51.296;-0.602;2022-07-10T10:16:23;2.90;;;1.70;;
50355;SDS011;36264;51.296;-0.602;2022-07-10T10:18:52;2.97;;;1.80;;
50355;SDS011;36264;51.296;-0.602;2022-07-10T10:21:38;3.35;;;1.90;;
50355;SDS011;36264;51.296;-0.602;2022-07-10T10:24:04;2.15;;;1.50;;
50355;SDS011;36264;51.296;-0.602;2022-07-10T10:26:29;1.75;;;1.40;;
50355;SDS011;36264;51.296;-0.602;2022-07-10T10:28:56;4.13;;;1.92;;
50355;SDS011;36264;51.296;-0.602;2022-07-10T10:31:24;2.72;;;1.70;;
50355;SDS011;36264;51.296;-0.602;2022-07-10T10:33:53;2.97;;;1.98;;
50355;SDS011;36264;51.296;-0.602;2022-07-10T10:39:19;4.07;;;1.70;;
50355;SDS011;36264;51.296;-0.602;2022-07-10T10:41:52;2.00;;;1.50;;
50355;SDS011;36264;51.296;-0.602;2022-07-10T10:44:19;2.70;;;1.83;;
50355;SDS011;36264;51.296;-0.602;2022-07-10T10:49:22;2.63;;;1.77;;
50355;SDS011;36264;51.296;-0.602;2022-07-10T10:51:59;3.03;;;1.73;;
50355;SDS011;36264;51.296;-0.602;2022-07-10T10:54:25;2.47;;;1.63;;
50355;SDS011;36264;51.296;-0.602;2022-07-10T10:57:11;2.30;;;1.58;;
50355;SDS011;36264;51.296;-0.602;2022-07-10T10:59:46;2.22;;;1.40;;
50355;SDS011;36264;51.296;-0.602;2022-07-10T11:02:30;1.73;;;1.50;;
50355;SDS011;36264;51.296;-0.602;2022-07-10T11:10:34;2.22;;;1.42;;
50355;SDS011;36264;51.296;-0.602;2022-07-10T11:15:36;2.65;;;1.60;;
50355;SDS011;36264;51.296;-0.602;2022-07-10T11:20:34;2.45;;;1.65;;
50355;SDS011;36264;51.296;-0.602;2022-07-10T11:25:49;2.40;;;1.50;;
50355;SDS011;36264;51.296;-0.602;2022-07-10T11:28:28;2.55;;;1.63;;
50355;SDS011;36264;51.296;-0.602;2022-07-10T11:31:05;2.55;;;1.60;;
50355;SDS011;36264;51.296;-0.602;2022-07-10T11:33:33;2.15;;;1.60;;
50355;SDS011;36264;51.296;-0.602;2022-07-10T11:36:29;2.03;;;1.50;;
50355;SDS011;36264;51.296;-0.602;2022-07-10T11:38:57;2.75;;;1.70;;
50355;SDS011;36264;51.296;-0.602;2022-07-10T11:41:24;2.03;;;1.50;;
50355;SDS011;36264;51.296;-0.602;2022-07-10T11:43:50;3.10;;;2.00;;
50355;SDS011;36264;51.296;-0.602;2022-07-10T11:46:21;2.35;;;1.48;;
50355;SDS011;36264;51.296;-0.602;2022-07-10T11:48:49;1.60;;;1.50;;
50355;SDS011;36264;51.296;-0.602;2022-07-10T11:51:21;2.53;;;1.60;;
50355;SDS011;36264;51.296;-0.602;2022-07-10T11:53:56;2.15;;;1.63;;
50355;SDS011;36264;51.296;-0.602;2022-07-10T11:56:24;2.13;;;1.40;;
50355;SDS011;36264;51.296;-0.602;2022-07-10T11:58:57;3.00;;;1.60;;
50355;SDS011;36264;51.296;-0.602;2022-07-10T12:01:33;2.80;;;1.55;;
50355;SDS011;36264;51.296;-0.602;2022-07-10T12:06:30;4.05;;;1.85;;
50355;SDS011;36264;51.296;-0.602;2022-07-10T12:09:00;2.30;;;1.60;;
50355;SDS011;36264;51.296;-0.602;2022-07-10T12:11:27;2.20;;;1.50;;
50355;SDS011;36264;51.296;-0.602;2022-07-10T12:13:54;2.53;;;1.60;;
50355;SDS011;36264;51.296;-0.602;2022-07-10T12:16:42;3.47;;;1.60;;
50355;SDS011;36264;51.296;-0.602;2022-07-10T12:19:08;2.00;;;1.40;;
50355;SDS011;36264;51.296;-0.602;2022-07-10T12:21:36;5.15;;;1.67;;
50355;SDS011;36264;51.296;-0.602;2022-07-10T12:24:02;2.38;;;1.70;;
50355;SDS011;36264;51.296;-0.602;2022-07-10T12:26:34;3.45;;;1.90;;
50355;SDS011;36264;51.296;-0.602;2022-07-10T12:29:01;2.47;;;1.70;;
50355;SDS011;36264;51.296;-0.602;2022-07-10T12:31:31;6.55;;;1.90;;
50355;SDS011;36264;51.296;-0.602;2022-07-10T12:34:07;2.10;;;1.40;;
50355;SDS011;36264;51.296;-0.602;2022-07-10T12:39:16;2.10;;;1.50;;
50355;SDS011;36264;51.296;-0.602;2022-07-10T12:41:53;2.22;;;1.60;;
50355;SDS011;36264;51.296;-0.602;2022-07-10T12:44:32;2.55;;;1.55;;
50355;SDS011;36264;51.296;-0.602;2022-07-10T12:49:27;2.05;;;1.60;;
50355;SDS011;36264;51.296;-0.602;2022-07-10T12:51:53;2.53;;;1.50;;
50355;SDS011;36264;51.296;-0.602;2022-07-10T12:54:34;2.25;;;1.55;;
50355;SDS011;36264;51.296;-0.602;2022-07-10T12:57:03;2.22;;;1.48;;
50355;SDS011;36264;51.296;-0.602;2022-07-10T12:59:32;1.88;;;1.40;;
50355;SDS011;36264;51.296;-0.602;2022-07-10T13:01:59;1.92;;;1.50;;
50355;SDS011;36264;51.296;-0.602;2022-07-10T13:04:51;2.33;;;1.50;;
50355;SDS011;36264;51.296;-0.602;2022-07-10T13:07:18;2.47;;;1.70;;
50355;SDS011;36264;51.296;-0.602;2022-07-10T13:09:43;2.10;;;1.40;;
50355;SDS011;36264;51.296;-0.602;2022-07-10T13:12:10;1.75;;;1.40;;
50355;SDS011;36264;51.296;-0.602;2022-07-10T13:14:35;3.08;;;1.80;;
50355;SDS011;36264;51.296;-0.602;2022-07-10T13:17:01;2.63;;;1.58;;
50355;SDS011;36264;51.296;-0.602;2022-07-10T13:19:26;1.70;;;1.40;;
50355;SDS011;36264;51.296;-0.602;2022-07-10T13:21:52;2.38;;;1.55;;
50355;SDS011;36264;51.296;-0.602;2022-07-10T13:24:17;1.95;;;1.50;;
50355;SDS011;36264;51.296;-0.602;2022-07-10T13:26:42;1.77;;;1.50;;
50355;SDS011;36264;51.296;-0.602;2022-07-10T13:29:08;2.30;;;1.60;;
50355;SDS011;36264;51.296;-0.602;2022-07-10T13:31:34;2.78;;;1.70;;
50355;SDS011;36264;51.296;-0.602;2022-07-10T13:33:59;2.67;;;1.60;;
50355;SDS011;36264;51.296;-0.602;2022-07-10T13:36:24;2.65;;;1.63;;
50355;SDS011;36264;51.296;-0.602;2022-07-10T13:38:50;2.10;;;1.50;;
50355;SDS011;36264;51.296;-0.602;2022-07-10T13:41:17;2.45;;;1.50;;
50355;SDS011;36264;51.296;-0.602;2022-07-10T13:43:43;2.67;;;1.75;;
50355;SDS011;36264;51.296;-0.602;2022-07-10T13:46:08;2.15;;;1.52;;
50355;SDS011;36264;51.296;-0.602;2022-07-10T13:48:34;3.00;;;1.65;;
50355;SDS011;36264;51.296;-0.602;2022-07-10T13:50:59;3.13;;;1.80;;
50355;SDS011;36264;51.296;-0.602;2022-07-10T13:53:25;1.90;;;1.50;;
50355;SDS011;36264;51.296;-0.602;2022-07-10T13:55:50;2.97;;;1.70;;
50355;SDS011;36264;51.296;-0.602;2022-07-10T13:58:16;4.85;;;1.75;;
50355;SDS011;36264;51.296;-0.602;2022-07-10T14:00:42;2.78;;;1.67;;
50355;SDS011;36264;51.296;-0.602;2022-07-10T14:03:07;3.28;;;1.90;;
50355;SDS011;36264;51.296;-0.602;2022-07-10T14:05:34;2.45;;;1.65;;
50355;SDS011;36264;51.296;-0.602;2022-07-10T14:08:00;2.90;;;1.70;;
50355;SDS011;36264;51.296;-0.602;2022-07-10T14:10:25;3.45;;;1.80;;
50355;SDS011;36264;51.296;-0.602;2022-07-10T14:12:55;2.75;;;1.77;;
50355;SDS011;36264;51.296;-0.602;2022-07-10T14:15:20;2.97;;;1.73;;
50355;SDS011;36264;51.296;-0.602;2022-07-10T14:17:46;3.83;;;1.70;;
50355;SDS011;36264;51.296;-0.602;2022-07-10T14:20:12;3.83;;;1.67;;
50355;SDS011;36264;51.296;-0.602;2022-07-10T14:22:37;2.45;;;1.70;;
50355;SDS011;36264;51.296;-0.602;2022-07-10T14:25:07;4.07;;;2.10;;
50355;SDS011;36264;51.296;-0.602;2022-07-10T14:27:36;2.45;;;1.60;;
50355;SDS011;36264;51.296;-0.602;2022-07-10T14:30:02;2.72;;;1.67;;
50355;SDS011;36264;51.296;-0.602;2022-07-10T14:32:28;2.95;;;1.75;;
50355;SDS011;36264;51.296;-0.602;2022-07-10T14:34:54;2.63;;;1.67;;
50355;SDS011;36264;51.296;-0.602;2022-07-10T14:37:19;2.95;;;1.70;;
50355;SDS011;36264;51.296;-0.602;2022-07-10T14:39:44;3.00;;;1.77;;
50355;SDS011;36264;51.296;-0.602;2022-07-10T14:42:11;2.95;;;1.80;;
50355;SDS011;36264;51.296;-0.602;2022-07-10T14:44:37;2.67;;;1.60;;
50355;SDS011;36264;51.296;-0.602;2022-07-10T14:47:02;2.83;;;1.80;;
50355;SDS011;36264;51.296;-0.602;2022-07-10T14:49:28;3.00;;;1.90;;
50355;SDS011;36264;51.296;-0.602;2022-07-10T14:51:53;4.13;;;2.03;;
50355;SDS011;36264;51.296;-0.602;2022-07-10T14:54:22;2.50;;;1.70;;
50355;SDS011;36264;51.296;-0.602;2022-07-10T14:56:47;2.88;;;1.67;;
50355;SDS011;36264;51.296;-0.602;2022-07-10T14:59:13;2.90;;;1.80;;
50355;SDS011;36264;51.296;-0.602;2022-07-10T15:01:38;2.92;;;1.90;;
50355;SDS011;36264;51.296;-0.602;2022-07-10T15:04:04;2.97;;;1.80;;
50355;SDS011;36264;51.296;-0.602;2022-07-10T15:06:29;3.10;;;1.80;;
50355;SDS011;36264;51.296;-0.602;2022-07-10T15:08:55;2.90;;;1.90;;
50355;SDS011;36264;51.296;-0.602;2022-07-10T15:11:21;2.95;;;1.85;;